Tafi del Valle, Argentina
Current Conditions -  °F | °C
As of 4:00 AM on Saturday 20 Dec 2014 (Local Time) from SANT Reporting Station
Clear Clear  
Wind Chill: 72°   Ceiling: Unl
Heat Index: 72°   Visibility: 6mi
Dew Point: 66°   Wind: 7mph
Humidity: 83%   Direction: 360°N
Pressure: 29.5"   Gusts: NA
Location:  26.87°S, 65.68°W
Report Text: SANT 200700Z 36006KT CAVOK 22/19 Q0999
Loading
Personal Weather Stations






























Interactive Weather Map New forecast layout! Learn more

10-Day Weather Forecast

Advertisements
Track Severe Weather on mobile